LIRS/GRS METAR and TAF weather

Enter ICAO airport designator
Station Type Date Time Source
LIRS METAR 2019/12/06 13:55 UTC NOAA

LIRS 061355Z 36004KT 3000 -TSRA FEW010 SCT018CB BKN025 13/12


Station Type Date Time Source
LIRS Decoded METAR 2019/12/06 13:55 UTC NOAA

Grosseto, Italy (LIRS) 42-45N 011-04E 7M
Dec 06, 2019 - 08:55 AM EST / 2019.12.06 1355 UTC
Wind: from the N (360 degrees) at 5 MPH (4 KT):0
Visibility: 1 mile(s):0
Sky conditions: mostly cloudy
Weather: light rain with thunder; Cumulonimbus clouds observed
Temperature: 55 F (13 C)
Dew Point: 53 F (12 C)
Relative Humidity: 93%
Pressure (altimeter): 30.15 in. Hg (1021 hPa)
ob: LIRS 061355Z 36004KT 3000 -TSRA FEW010 SCT018CB BKN025 13/12 Q1021
cycle: 14

Station Type Date Time Source
LIRS TAF 2018/06/29 09:24 UTC NOAA

TAF TAF LIRS 290800Z 2909/2921 VRB03KT 9999 FEW030
BECMG 2911/2913 24015KT

Example: see airport list